SUMU/MVD METAR and TAF weather

Enter ICAO airport designator
Station Type Date Time Source
SUMU METAR 2019/06/16 04:00 UTC NOAA

SUMU 160400Z 12016KT 5000 DZ BR BKN001 OVC070 15/15 Q1021 TEMPO RA


Station Type Date Time Source
SUMU Decoded METAR 2019/06/16 04:00 UTC NOAA

Carrasco, Uruguay (SUMU) 34-50S 056-00W 32M
Jun 16, 2019 - 12:00 AM EDT / 2019.06.16 0400 UTC
Wind: from the ESE (120 degrees) at 18 MPH (16 KT):0
Visibility: 3 mile(s):0
Sky conditions: overcast
Weather: drizzle; mist
Temperature: 59 F (15 C)
Dew Point: 59 F (15 C)
Relative Humidity: 100%
Pressure (altimeter): 30.15 in. Hg (1021 hPa)
ob: SUMU 160400Z 12016KT 5000 DZ BR BKN001 OVC070 15/15 Q1021 TEMPO RA
cycle: 4

Station Type Date Time Source
SUMU TAF 2019/06/15 18:39 UTC NOAA

TAF TAF SUMU 151730Z 1518/1618 14015KT 5000 RA BR BKN005 OVC070 TX14/1618Z TN12/1610Z
TEMPO 1518/1603 14025G35KT 1200 TSRA BKN003 FEW040CB OVC060

Example: see airport list